createdAt,value
2017-02-22T00:00:31.218Z,1001.6
2017-02-22T00:01:31.207Z,1001.57
2017-02-22T00:02:31.177Z,1001.53
2017-02-22T00:03:31.156Z,1001.55
2017-02-22T00:04:31.136Z,1001.48
2017-02-22T00:05:31.115Z,1001.37
2017-02-22T00:06:31.144Z,1001.53
2017-02-22T00:07:31.074Z,1001.52
2017-02-22T00:08:31.053Z,1001.48
2017-02-22T00:09:31.034Z,1001.48
2017-02-22T00:10:31.012Z,1001.46
2017-02-22T00:11:30.993Z,1001.53
2017-02-22T00:12:30.972Z,1001.48
2017-02-22T00:13:30.951Z,1001.39
2017-02-22T00:14:30.931Z,1001.52
2017-02-22T00:15:30.911Z,1001.35
2017-02-22T00:16:30.890Z,1001.52
2017-02-22T00:17:30.870Z,1001.41
2017-02-22T00:18:30.849Z,1001.38
2017-02-22T00:19:30.830Z,1001.29
2017-02-22T00:20:30.814Z,1001.31
2017-02-22T00:21:30.788Z,1001.23
2017-02-22T00:22:30.770Z,1001.27
2017-02-22T00:23:30.746Z,1001.23
2017-02-22T00:24:30.736Z,1001.29
2017-02-22T00:25:30.706Z,1001.21
2017-02-22T00:26:30.684Z,1001.15
2017-02-22T00:27:30.663Z,1000.97
2017-02-22T00:28:30.644Z,1001
2017-02-22T00:29:30.625Z,1000.94
2017-02-22T00:30:30.603Z,1000.93
2017-02-22T00:31:30.582Z,1000.94
2017-02-22T00:32:30.565Z,1000.89
2017-02-22T00:33:30.545Z,1000.77
2017-02-22T00:34:30.530Z,1000.77
2017-02-22T00:35:30.506Z,1000.72
2017-02-22T00:36:30.482Z,1000.67
2017-02-22T00:37:30.464Z,1000.66
2017-02-22T00:38:30.443Z,1000.7
2017-02-22T00:39:30.428Z,1000.69
2017-02-22T00:40:30.404Z,1000.7
2017-02-22T00:41:30.380Z,1000.74
2017-02-22T00:42:30.361Z,1000.7
2017-02-22T00:43:30.340Z,1000.71
2017-02-22T00:44:30.322Z,1000.68
2017-02-22T00:45:30.302Z,1000.62
2017-02-22T00:46:30.284Z,1000.64
2017-02-22T00:47:30.261Z,1000.56
2017-02-22T00:48:30.242Z,1000.61
2017-02-22T00:49:30.222Z,1000.69
2017-02-22T00:50:30.199Z,1000.71
2017-02-22T00:51:30.178Z,1000.55
2017-02-22T00:52:30.159Z,1000.6
2017-02-22T00:53:30.136Z,1000.66
2017-02-22T00:54:30.117Z,1000.62
2017-02-22T00:55:30.096Z,1000.68
2017-02-22T00:56:30.078Z,1000.66
2017-02-22T00:57:30.056Z,1000.69
2017-02-22T00:58:30.036Z,1000.53
2017-02-22T00:59:30.016Z,1000.57
2017-02-22T01:00:29.996Z,1000.6
2017-02-22T01:01:29.975Z,1000.51
2017-02-22T01:02:29.954Z,1000.52
2017-02-22T01:03:29.934Z,1000.59
2017-02-22T01:04:29.923Z,1000.6
2017-02-22T01:05:29.898Z,1000.51
2017-02-22T01:06:29.872Z,1000.58
2017-02-22T01:07:29.851Z,1000.57
2017-02-22T01:08:29.835Z,1000.51
2017-02-22T01:09:29.811Z,1000.48
2017-02-22T01:10:29.791Z,1000.49
2017-02-22T01:11:29.771Z,1000.51
2017-02-22T01:12:29.760Z,1000.47
2017-02-22T01:13:29.739Z,1000.41
2017-02-22T01:14:29.760Z,1000.41
2017-02-22T01:15:29.690Z,1000.44
2017-02-22T01:16:29.721Z,1000.47
2017-02-22T01:17:29.651Z,1000.39
2017-02-22T01:18:29.636Z,1000.54
2017-02-22T01:19:29.608Z,1000.47
2017-02-22T01:20:29.618Z,1000.53
2017-02-22T01:21:29.582Z,1000.5
2017-02-22T01:22:29.550Z,1000.72
2017-02-22T01:23:29.532Z,1000.41
2017-02-22T01:24:29.561Z,1000.48
2017-02-22T01:25:29.487Z,1000.47
2017-02-22T01:26:29.472Z,1000.36
2017-02-22T01:27:29.448Z,1000.31
2017-02-22T01:28:29.479Z,1000.34
2017-02-22T01:29:29.404Z,1000.42
2017-02-22T01:30:29.389Z,1000.5
2017-02-22T01:31:29.368Z,1000.47
2017-02-22T01:32:29.345Z,1000.41
2017-02-22T01:33:29.328Z,1000.38
2017-02-22T01:34:29.307Z,1000.41
2017-02-22T01:35:29.285Z,1000.45
2017-02-22T01:36:29.362Z,1000.42
2017-02-22T01:37:29.246Z,1000.38
2017-02-22T01:38:29.234Z,1000.32
2017-02-22T01:39:29.203Z,1000.4
2017-02-22T01:40:29.231Z,1000.41
2017-02-22T01:41:29.163Z,1000.29
2017-02-22T01:42:29.153Z,1000.28
2017-02-22T01:43:29.123Z,1000.24
2017-02-22T01:44:29.213Z,1000.2
2017-02-22T01:45:29.082Z,1000.43
2017-02-22T01:46:29.109Z,1000.21
2017-02-22T01:47:29.039Z,1000.19
2017-02-22T01:48:29.079Z,1000.19
2017-02-22T01:49:29.009Z,1000.12
2017-02-22T01:50:29.129Z,1000.13
2017-02-22T01:51:28.958Z,1000.03
2017-02-22T01:52:29.092Z,1000.21
2017-02-22T01:53:28.919Z,1000.22
2017-02-22T01:54:28.966Z,1000.17
2017-02-22T01:55:28.884Z,1000.14
2017-02-22T01:56:29.008Z,1000.22
2017-02-22T01:57:28.836Z,1000.15
2017-02-22T01:58:28.824Z,1000.14
2017-02-22T01:59:28.804Z,1000.13
2017-02-22T02:00:28.785Z,1000.19
2017-02-22T02:01:28.757Z,1000.17
2017-02-22T02:02:28.738Z,1000.13
2017-02-22T02:03:28.720Z,1000.1
2017-02-22T02:04:28.699Z,1000.04
2017-02-22T02:05:28.681Z,1000.05
2017-02-22T02:06:28.657Z,999.98
2017-02-22T02:07:28.647Z,1000.1
2017-02-22T02:08:28.617Z,1000
2017-02-22T02:09:28.597Z,1000.02
2017-02-22T02:10:28.578Z,999.97
2017-02-22T02:11:28.556Z,999.99
2017-02-22T02:12:28.536Z,999.95
2017-02-22T02:13:28.516Z,999.88
2017-02-22T02:14:28.496Z,999.91
2017-02-22T02:15:28.475Z,999.92
2017-02-22T02:16:28.453Z,1000.04
2017-02-22T02:17:28.434Z,999.96
2017-02-22T02:18:28.414Z,999.89
2017-02-22T02:19:28.396Z,999.92
2017-02-22T02:20:28.405Z,999.87
2017-02-22T02:21:28.362Z,1000.01
2017-02-22T02:22:28.342Z,999.92
2017-02-22T02:23:28.314Z,999.95
2017-02-22T02:24:28.300Z,999.85
2017-02-22T02:25:28.280Z,999.82
2017-02-22T02:26:28.256Z,999.84
2017-02-22T02:27:28.235Z,999.85
2017-02-22T02:28:28.214Z,999.65
2017-02-22T02:29:28.196Z,999.79
2017-02-22T02:30:28.177Z,999.81
2017-02-22T02:31:28.155Z,999.71
2017-02-22T02:32:28.135Z,999.72
2017-02-22T02:33:28.115Z,999.77
2017-02-22T02:34:28.092Z,999.65
2017-02-22T02:35:28.074Z,999.7
2017-02-22T02:36:28.051Z,999.59
2017-02-22T02:37:28.033Z,999.55
2017-02-22T02:38:28.013Z,999.59
2017-02-22T02:39:27.992Z,999.49
2017-02-22T02:40:27.976Z,999.5
2017-02-22T02:41:27.961Z,999.52
2017-02-22T02:42:27.930Z,999.42
2017-02-22T02:43:27.920Z,999.41
2017-02-22T02:44:27.900Z,999.46
2017-02-22T02:45:27.878Z,999.44
2017-02-22T02:46:27.853Z,999.48
2017-02-22T02:47:27.837Z,999.46
2017-02-22T02:48:27.818Z,999.47
2017-02-22T02:49:27.797Z,999.49
2017-02-22T02:50:27.776Z,999.41
2017-02-22T02:51:27.751Z,999.32
2017-02-22T02:52:27.735Z,999.3
2017-02-22T02:53:27.716Z,999.35
2017-02-22T02:54:27.694Z,999.3
2017-02-22T02:55:27.674Z,999.32
2017-02-22T02:56:27.652Z,999.34
2017-02-22T02:57:27.633Z,999.34
2017-02-22T02:58:27.622Z,999.24
2017-02-22T02:59:27.591Z,999.34
2017-02-22T03:00:27.572Z,999.35
2017-02-22T03:01:27.551Z,999.17
2017-02-22T03:02:27.540Z,999.34
2017-02-22T03:03:27.519Z,999.32
2017-02-22T03:04:27.493Z,999.24
2017-02-22T03:05:27.469Z,999.21
2017-02-22T03:06:27.449Z,999.19
2017-02-22T03:07:27.436Z,999.3
2017-02-22T03:08:27.417Z,999.2
2017-02-22T03:09:27.391Z,999.11
2017-02-22T03:10:27.458Z,999.2
2017-02-22T03:11:27.356Z,999.23
2017-02-22T03:12:27.473Z,999.16
2017-02-22T03:13:27.309Z,999.12
2017-02-22T03:14:27.303Z,999.2
2017-02-22T03:15:27.277Z,999.17
2017-02-22T03:16:27.258Z,999.21
2017-02-22T03:17:27.232Z,999.09
2017-02-22T03:18:27.218Z,999.12
2017-02-22T03:19:27.200Z,999.01
2017-02-22T03:20:27.175Z,999.07
2017-02-22T03:21:27.148Z,999.2
2017-02-22T03:22:27.139Z,999.02
2017-02-22T03:23:27.118Z,999.04
2017-02-22T03:24:27.090Z,999.08
2017-02-22T03:25:27.069Z,999.02
2017-02-22T03:26:27.048Z,998.94
2017-02-22T03:27:27.030Z,999.2
2017-02-22T03:28:27.011Z,999.03
2017-02-22T03:29:26.990Z,999
2017-02-22T03:30:26.972Z,998.92
2017-02-22T03:31:26.952Z,999.03
2017-02-22T03:32:26.926Z,999.1
2017-02-22T03:33:26.913Z,998.88
2017-02-22T03:34:26.891Z,998.95
2017-02-22T03:35:26.876Z,998.87
2017-02-22T03:36:26.848Z,998.88
2017-02-22T03:37:26.830Z,998.91
2017-02-22T03:38:26.812Z,998.82
2017-02-22T03:39:26.786Z,998.92
2017-02-22T03:40:26.770Z,998.94
2017-02-22T03:41:26.748Z,998.82
2017-02-22T03:42:26.727Z,998.82
2017-02-22T03:43:26.707Z,998.89
2017-02-22T03:44:26.686Z,998.89
2017-02-22T03:45:26.672Z,998.95
2017-02-22T03:46:26.655Z,998.88
2017-02-22T03:47:26.634Z,999.04
2017-02-22T03:48:26.614Z,998.82
2017-02-22T03:49:26.600Z,998.79
2017-02-22T03:50:26.568Z,998.84
2017-02-22T03:51:26.548Z,998.78
2017-02-22T03:52:26.532Z,998.78
2017-02-22T03:53:26.512Z,998.72
2017-02-22T03:54:26.488Z,998.72
2017-02-22T03:55:26.470Z,998.8
2017-02-22T03:56:26.451Z,998.72
2017-02-22T03:57:26.429Z,998.57
2017-02-22T03:58:26.404Z,998.58
2017-02-22T03:59:26.387Z,998.53
2017-02-22T04:00:26.368Z,998.57
2017-02-22T04:01:26.347Z,998.62
2017-02-22T04:02:26.327Z,998.49
2017-02-22T04:03:26.316Z,998.6
2017-02-22T04:04:26.291Z,998.59
2017-02-22T04:05:26.273Z,998.6
2017-02-22T04:06:26.250Z,998.63
2017-02-22T04:07:26.232Z,998.67
2017-02-22T04:08:26.210Z,998.6
2017-02-22T04:09:26.187Z,998.6
2017-02-22T04:10:26.173Z,998.62
2017-02-22T04:11:26.154Z,998.61
2017-02-22T04:12:26.132Z,998.66
2017-02-22T04:13:26.109Z,998.59
2017-02-22T04:14:26.091Z,998.69
2017-02-22T04:15:26.070Z,998.64
2017-02-22T04:16:26.151Z,998.53
2017-02-22T04:17:26.031Z,998.51
2017-02-22T04:18:26.007Z,998.6
2017-02-22T04:19:25.989Z,998.51
2017-02-22T04:20:25.968Z,998.78
2017-02-22T04:21:25.952Z,998.65
2017-02-22T04:22:25.927Z,998.52
2017-02-22T04:23:25.907Z,998.58
2017-02-22T04:24:25.890Z,998.57
2017-02-22T04:25:25.868Z,998.54
2017-02-22T04:26:25.850Z,998.45
2017-02-22T04:27:25.828Z,998.59
2017-02-22T04:28:25.810Z,998.66
2017-02-22T04:29:25.785Z,998.53
2017-02-22T04:30:25.768Z,998.59
2017-02-22T04:31:25.749Z,998.5
2017-02-22T04:32:25.731Z,998.55
2017-02-22T04:33:25.707Z,998.46
2017-02-22T04:34:25.691Z,998.51
2017-02-22T04:35:25.667Z,998.57
2017-02-22T04:36:25.660Z,998.44
2017-02-22T04:37:25.628Z,998.51
2017-02-22T04:38:25.610Z,998.59
2017-02-22T04:39:25.591Z,998.54
2017-02-22T04:40:25.569Z,998.66
2017-02-22T04:41:25.547Z,998.56
2017-02-22T04:42:25.525Z,998.68
2017-02-22T04:43:25.506Z,998.33
2017-02-22T04:44:25.485Z,998.43
2017-02-22T04:45:25.470Z,998.41
2017-02-22T04:46:25.446Z,998.22
2017-02-22T04:47:25.430Z,998.34
2017-02-22T04:48:25.406Z,998.4
2017-02-22T04:49:25.402Z,998.32
2017-02-22T04:50:25.368Z,998.3
2017-02-22T04:51:25.344Z,998.34
2017-02-22T04:52:25.331Z,998.36
2017-02-22T04:53:25.311Z,998.52
2017-02-22T04:54:25.286Z,998.29
2017-02-22T04:55:25.265Z,998.33
2017-02-22T04:56:25.243Z,998.41
2017-02-22T04:57:25.227Z,998.38
2017-02-22T04:58:25.209Z,998.38
2017-02-22T04:59:25.186Z,998.41
2017-02-22T05:00:25.167Z,998.36
2017-02-22T05:01:25.156Z,998.32
2017-02-22T05:02:25.124Z,998.32
2017-02-22T05:03:25.107Z,998.39
2017-02-22T05:04:25.083Z,998.28
2017-02-22T05:05:25.065Z,998.32
2017-02-22T05:06:25.044Z,998.28
2017-02-22T05:07:25.025Z,998.21
2017-02-22T05:08:25.007Z,998.27
2017-02-22T05:09:24.983Z,998.34
2017-02-22T05:10:24.964Z,998.24
2017-02-22T05:11:24.942Z,998.32
2017-02-22T05:12:24.922Z,998.36
2017-02-22T05:13:24.903Z,998.17
2017-02-22T05:14:24.891Z,998.2
2017-02-22T05:15:24.870Z,998.34
2017-02-22T05:16:24.848Z,998.15
2017-02-22T05:17:24.827Z,998.26
2017-02-22T05:18:24.803Z,998.11
2017-02-22T05:19:24.788Z,998.22
2017-02-22T05:20:24.767Z,998.25
2017-02-22T05:21:24.744Z,998.15
2017-02-22T05:22:24.723Z,998.21
2017-02-22T05:23:24.705Z,998.24
2017-02-22T05:24:24.682Z,998.28
2017-02-22T05:25:24.664Z,998.14
2017-02-22T05:26:24.644Z,998.13
2017-02-22T05:27:24.624Z,998.04
2017-02-22T05:28:24.612Z,998.16
2017-02-22T05:29:24.581Z,998.29
2017-02-22T05:30:24.562Z,998.05
2017-02-22T05:31:24.541Z,998.07
2017-02-22T05:32:24.520Z,998.21
2017-02-22T05:33:24.499Z,998.16
2017-02-22T05:34:24.479Z,998.28
2017-02-22T05:35:24.460Z,998.07
2017-02-22T05:36:24.439Z,998.05
2017-02-22T05:37:24.428Z,997.98
2017-02-22T05:38:24.397Z,998.08
2017-02-22T05:39:24.385Z,998.06
2017-02-22T05:40:24.367Z,997.97
2017-02-22T05:41:24.336Z,998
2017-02-22T05:42:24.321Z,998.1
2017-02-22T05:43:24.298Z,998
2017-02-22T05:44:24.284Z,997.93
2017-02-22T05:45:24.260Z,997.98
2017-02-22T05:46:24.239Z,997.9
2017-02-22T05:47:24.222Z,997.99
2017-02-22T05:48:24.197Z,997.92
2017-02-22T05:49:24.176Z,997.94
2017-02-22T05:50:24.160Z,997.92
2017-02-22T05:51:24.139Z,998.18
2017-02-22T05:52:24.114Z,997.92
2017-02-22T05:53:24.099Z,997.86
2017-02-22T05:54:24.079Z,997.88
2017-02-22T05:55:24.055Z,998.1
2017-02-22T05:56:24.037Z,997.81
2017-02-22T05:57:24.018Z,997.95
2017-02-22T05:58:23.994Z,997.97
2017-02-22T05:59:23.972Z,997.9
2017-02-22T06:00:23.955Z,997.89
2017-02-22T06:01:23.929Z,997.93
2017-02-22T06:02:23.911Z,997.87
2017-02-22T06:03:23.889Z,997.92
2017-02-22T06:04:23.872Z,997.89
2017-02-22T06:05:23.853Z,997.92
2017-02-22T06:06:23.829Z,997.85
2017-02-22T06:07:23.805Z,997.88
2017-02-22T06:08:23.791Z,997.91
2017-02-22T06:09:23.765Z,997.95
2017-02-22T06:10:23.751Z,997.86
2017-02-22T06:11:23.724Z,997.89
2017-02-22T06:12:23.703Z,997.88
2017-02-22T06:13:23.689Z,997.87
2017-02-22T06:14:23.667Z,997.87
2017-02-22T06:15:23.645Z,997.79
2017-02-22T06:16:23.628Z,997.8
2017-02-22T06:17:23.598Z,997.71
2017-02-22T06:18:23.586Z,997.91
2017-02-22T06:19:23.565Z,997.78
2017-02-22T06:20:23.540Z,997.74
2017-02-22T06:21:23.517Z,997.87
2017-02-22T06:22:23.504Z,997.74
2017-02-22T06:23:23.482Z,997.8
2017-02-22T06:24:23.463Z,997.83
2017-02-22T06:25:23.441Z,997.72
2017-02-22T06:26:23.413Z,997.69
2017-02-22T06:27:23.400Z,997.75
2017-02-22T06:28:23.375Z,997.82
2017-02-22T06:29:23.357Z,997.86
2017-02-22T06:30:23.336Z,997.81
2017-02-22T06:31:23.309Z,997.72
2017-02-22T06:32:23.292Z,997.8
2017-02-22T06:33:23.275Z,997.74
2017-02-22T06:34:23.258Z,997.79
2017-02-22T06:35:23.226Z,997.91
2017-02-22T06:36:23.208Z,998.02
2017-02-22T06:37:23.190Z,997.79
2017-02-22T06:38:23.167Z,997.86
2017-02-22T06:39:23.148Z,997.82
2017-02-22T06:40:23.123Z,997.8
2017-02-22T06:41:23.104Z,997.86
2017-02-22T06:42:23.083Z,997.76
2017-02-22T06:43:23.063Z,997.84
2017-02-22T06:44:23.041Z,997.76
2017-02-22T06:45:23.024Z,997.84
2017-02-22T06:46:23.005Z,997.79
2017-02-22T06:47:22.982Z,997.78
2017-02-22T06:48:22.963Z,997.73
2017-02-22T06:49:22.940Z,997.93
2017-02-22T06:50:22.922Z,997.8
2017-02-22T06:51:22.900Z,997.72
2017-02-22T06:52:22.885Z,997.89
2017-02-22T06:53:22.857Z,997.73
2017-02-22T06:54:22.836Z,997.79
2017-02-22T06:55:22.815Z,997.71
2017-02-22T06:56:22.795Z,997.7
2017-02-22T06:57:22.777Z,997.73
2017-02-22T06:58:22.755Z,997.74
2017-02-22T06:59:22.735Z,997.8
2017-02-22T07:00:22.710Z,997.73
2017-02-22T07:01:22.690Z,997.76
2017-02-22T07:02:22.672Z,997.79
2017-02-22T07:03:22.655Z,997.8
2017-02-22T07:04:22.628Z,997.78
2017-02-22T07:05:22.621Z,997.78
2017-02-22T07:06:22.591Z,997.76
2017-02-22T07:07:22.566Z,997.79
2017-02-22T07:08:22.549Z,997.78
2017-02-22T07:09:22.525Z,997.89
2017-02-22T07:10:22.505Z,997.84
2017-02-22T07:11:22.487Z,997.74
2017-02-22T07:12:22.463Z,997.75
2017-02-22T07:13:22.441Z,997.77
2017-02-22T07:14:22.426Z,997.79
2017-02-22T07:15:22.405Z,997.63
2017-02-22T07:16:22.385Z,997.62
2017-02-22T07:17:22.358Z,997.69
2017-02-22T07:18:22.338Z,997.64
2017-02-22T07:19:22.315Z,997.68
2017-02-22T07:20:22.298Z,997.72
2017-02-22T07:21:22.277Z,997.71
2017-02-22T07:22:22.255Z,997.7
2017-02-22T07:23:22.240Z,997.58
2017-02-22T07:24:22.216Z,997.69
2017-02-22T07:25:22.194Z,997.72
2017-02-22T07:26:22.178Z,997.7
2017-02-22T07:27:22.155Z,997.87
2017-02-22T07:28:22.133Z,997.67
2017-02-22T07:29:22.108Z,997.73
2017-02-22T07:30:22.092Z,997.79
2017-02-22T07:31:22.075Z,997.68
2017-02-22T07:32:22.046Z,997.78
2017-02-22T07:33:22.025Z,997.71
2017-02-22T07:34:22.005Z,997.97
2017-02-22T07:35:21.984Z,997.81
2017-02-22T07:36:21.965Z,997.8
2017-02-22T07:37:21.944Z,997.69
2017-02-22T07:38:21.924Z,997.8
2017-02-22T07:39:21.902Z,997.82
2017-02-22T07:40:21.882Z,997.76
2017-02-22T07:41:21.862Z,997.75
2017-02-22T07:42:21.841Z,997.76
2017-02-22T07:43:21.817Z,997.86
2017-02-22T07:44:21.799Z,997.9
2017-02-22T07:45:21.784Z,997.8
2017-02-22T07:46:21.759Z,997.76
2017-02-22T07:47:21.739Z,997.73
2017-02-22T07:48:21.720Z,997.82
2017-02-22T07:49:21.696Z,997.66
2017-02-22T07:50:21.672Z,997.78
2017-02-22T07:51:21.656Z,997.66
2017-02-22T07:52:21.635Z,997.7
2017-02-22T07:53:21.665Z,997.68
2017-02-22T07:54:21.596Z,997.72
2017-02-22T07:55:21.584Z,997.76
2017-02-22T07:56:21.547Z,997.72
2017-02-22T07:57:21.531Z,997.74
2017-02-22T07:58:21.512Z,997.77
2017-02-22T07:59:21.491Z,997.72
2017-02-22T08:00:21.473Z,997.65
2017-02-22T08:01:21.501Z,997.64
2017-02-22T08:02:21.429Z,997.65
2017-02-22T08:03:21.458Z,997.47
2017-02-22T08:04:21.391Z,997.66
2017-02-22T08:05:21.429Z,997.61
2017-02-22T08:06:21.341Z,997.64
2017-02-22T08:07:21.377Z,997.66
2017-02-22T08:08:21.303Z,997.53
2017-02-22T08:09:21.281Z,997.69
2017-02-22T08:10:21.265Z,997.67
2017-02-22T08:11:21.293Z,997.63
2017-02-22T08:12:21.223Z,997.67
2017-02-22T08:13:21.250Z,997.56
2017-02-22T08:14:21.176Z,997.61
2017-02-22T08:15:21.164Z,997.53
2017-02-22T08:16:21.137Z,997.58
2017-02-22T08:17:21.114Z,997.5
2017-02-22T08:18:21.100Z,997.61
2017-02-22T08:19:21.074Z,997.59
2017-02-22T08:20:21.058Z,997.59
2017-02-22T08:21:21.034Z,997.51
2017-02-22T08:22:21.009Z,997.6
2017-02-22T08:23:20.995Z,997.61
2017-02-22T08:24:20.971Z,997.72
2017-02-22T08:25:20.956Z,997.55
2017-02-22T08:26:20.933Z,997.52
2017-02-22T08:27:20.911Z,997.64
2017-02-22T08:28:20.893Z,997.55
2017-02-22T08:29:20.866Z,997.55
2017-02-22T08:30:20.852Z,997.56
2017-02-22T08:31:20.836Z,997.56
2017-02-22T08:32:20.858Z,997.62
2017-02-22T08:33:20.791Z,997.67
2017-02-22T08:34:20.764Z,997.61
2017-02-22T08:35:20.754Z,997.62
2017-02-22T08:36:20.727Z,997.59
2017-02-22T08:37:20.711Z,997.57
2017-02-22T08:38:20.689Z,997.64
2017-02-22T08:39:20.664Z,997.65
2017-02-22T08:40:20.648Z,997.64
2017-02-22T08:41:20.627Z,997.62
2017-02-22T08:42:20.599Z,997.58
2017-02-22T08:43:20.583Z,997.67
2017-02-22T08:44:20.562Z,997.57
2017-02-22T08:45:20.545Z,997.54
2017-02-22T08:46:20.520Z,997.63
2017-02-22T08:47:20.509Z,997.59
2017-02-22T08:48:20.482Z,997.59
2017-02-22T08:49:20.465Z,997.61
2017-02-22T08:50:20.442Z,997.56
2017-02-22T08:51:20.420Z,997.55
2017-02-22T08:52:20.402Z,997.49
2017-02-22T08:53:20.379Z,997.61
2017-02-22T08:54:20.357Z,997.62
2017-02-22T08:55:20.338Z,997.64
2017-02-22T08:56:20.317Z,997.75
2017-02-22T08:57:20.294Z,997.61
2017-02-22T08:58:20.279Z,997.63
2017-02-22T08:59:20.259Z,997.79
2017-02-22T09:00:20.239Z,997.66
2017-02-22T09:01:20.214Z,997.67
2017-02-22T09:02:20.195Z,997.84
2017-02-22T09:03:20.223Z,997.79
2017-02-22T09:04:20.151Z,997.71
2017-02-22T09:05:20.135Z,997.74
2017-02-22T09:06:20.117Z,997.67
2017-02-22T09:07:20.097Z,997.71
2017-02-22T09:08:20.076Z,997.75
2017-02-22T09:09:20.051Z,997.75
2017-02-22T09:10:20.056Z,997.73
2017-02-22T09:11:20.015Z,997.78
2017-02-22T09:12:19.989Z,997.67
2017-02-22T09:13:20.023Z,997.74
2017-02-22T09:14:19.953Z,997.74
2017-02-22T09:15:19.932Z,997.71
2017-02-22T09:16:19.911Z,997.73
2017-02-22T09:17:19.892Z,997.68
2017-02-22T09:18:19.871Z,997.72
2017-02-22T09:19:19.850Z,997.72
2017-02-22T09:20:19.829Z,997.68
2017-02-22T09:21:19.891Z,997.7
2017-02-22T09:22:19.789Z,997.73
2017-02-22T09:23:19.770Z,997.67
2017-02-22T09:24:19.745Z,997.8
2017-02-22T09:25:19.821Z,997.69
2017-02-22T09:26:19.706Z,997.73
2017-02-22T09:27:19.687Z,997.67
2017-02-22T09:28:19.666Z,997.67
2017-02-22T09:29:19.734Z,997.83
2017-02-22T09:30:19.623Z,997.66
2017-02-22T09:31:19.623Z,997.67
2017-02-22T09:32:19.583Z,997.55
2017-02-22T09:33:19.574Z,997.6
2017-02-22T09:34:19.542Z,997.65
2017-02-22T09:35:19.524Z,997.54
2017-02-22T09:36:19.501Z,997.61
2017-02-22T09:37:19.490Z,997.75
2017-02-22T09:38:19.464Z,997.62
2017-02-22T09:39:19.450Z,997.77
2017-02-22T09:40:19.429Z,997.72
2017-02-22T09:41:19.404Z,997.81
2017-02-22T09:42:19.381Z,997.78
2017-02-22T09:43:19.364Z,997.9
2017-02-22T09:44:19.348Z,997.9
2017-02-22T09:45:19.327Z,997.88
2017-02-22T09:46:19.306Z,997.75
2017-02-22T09:47:19.280Z,997.8
2017-02-22T09:48:19.263Z,997.71
2017-02-22T09:49:19.240Z,997.71
2017-02-22T09:50:19.222Z,997.65
2017-02-22T09:51:19.201Z,997.78
2017-02-22T09:52:19.181Z,997.82
2017-02-22T09:53:19.164Z,997.86
2017-02-22T09:54:19.139Z,997.88
2017-02-22T09:55:19.127Z,997.88
2017-02-22T09:56:19.098Z,997.99
2017-02-22T09:57:19.080Z,997.9
2017-02-22T09:58:19.059Z,997.82
2017-02-22T09:59:19.039Z,997.86
2017-02-22T10:00:19.020Z,997.83
2017-02-22T10:01:19.006Z,997.81
2017-02-22T10:02:18.984Z,997.85
2017-02-22T10:03:18.960Z,997.81
2017-02-22T10:04:18.944Z,997.93
2017-02-22T10:05:18.925Z,997.98
2017-02-22T10:06:18.904Z,997.92
2017-02-22T10:07:18.886Z,997.89
2017-02-22T10:08:18.858Z,997.82
2017-02-22T10:09:18.840Z,997.79
2017-02-22T10:10:18.823Z,997.8
2017-02-22T10:11:18.810Z,997.79
2017-02-22T10:12:18.780Z,997.69
2017-02-22T10:13:18.761Z,997.81
2017-02-22T10:14:18.737Z,997.8
2017-02-22T10:15:18.720Z,997.83
2017-02-22T10:16:18.699Z,997.83
2017-02-22T10:17:18.677Z,997.79
2017-02-22T10:18:18.657Z,997.77
2017-02-22T10:19:18.637Z,997.82
2017-02-22T10:20:18.623Z,997.78
2017-02-22T10:21:18.603Z,997.76
2017-02-22T10:22:18.576Z,997.85
2017-02-22T10:23:18.562Z,997.81
2017-02-22T10:24:18.540Z,997.81
2017-02-22T10:25:18.516Z,997.77
2017-02-22T10:26:18.502Z,997.71
2017-02-22T10:27:18.482Z,997.81
2017-02-22T10:28:18.454Z,997.88
2017-02-22T10:29:18.434Z,997.89
2017-02-22T10:30:18.449Z,997.89
2017-02-22T10:31:18.394Z,997.89
2017-02-22T10:32:18.380Z,997.83
2017-02-22T10:33:18.361Z,997.83
2017-02-22T10:34:18.339Z,997.89
2017-02-22T10:35:18.321Z,997.92
2017-02-22T10:36:18.296Z,997.87
2017-02-22T10:37:18.278Z,997.82
2017-02-22T10:38:18.256Z,997.78
2017-02-22T10:39:18.238Z,997.79
2017-02-22T10:40:18.214Z,997.75
2017-02-22T10:41:18.197Z,997.77
2017-02-22T10:42:18.175Z,997.82
2017-02-22T10:43:18.161Z,997.72
2017-02-22T10:44:18.138Z,997.67
2017-02-22T10:45:18.124Z,997.73
2017-02-22T10:46:18.105Z,997.72
2017-02-22T10:47:18.074Z,997.71
2017-02-22T10:48:18.064Z,997.64
2017-02-22T10:49:18.041Z,997.75
2017-02-22T10:50:18.020Z,997.72
2017-02-22T10:51:18.000Z,997.74
2017-02-22T10:52:17.980Z,997.73
2017-02-22T10:53:17.956Z,997.82
2017-02-22T10:54:17.938Z,997.81
2017-02-22T10:55:17.936Z,997.77
2017-02-22T10:56:17.900Z,997.79
2017-02-22T10:57:17.884Z,997.74
2017-02-22T10:58:17.862Z,997.81
2017-02-22T10:59:17.845Z,997.71
2017-02-22T11:00:17.823Z,997.75
2017-02-22T11:01:17.805Z,997.74
2017-02-22T11:02:17.780Z,997.68
2017-02-22T11:03:17.764Z,997.79
2017-02-22T11:04:17.742Z,997.68
2017-02-22T11:05:17.723Z,997.72
2017-02-22T11:06:17.702Z,997.66
2017-02-22T11:07:17.682Z,997.66
2017-02-22T11:08:17.661Z,997.75
2017-02-22T11:09:17.643Z,997.71
2017-02-22T11:10:17.620Z,997.63
2017-02-22T11:11:17.603Z,997.63
2017-02-22T11:12:17.586Z,997.63
2017-02-22T11:13:17.567Z,997.56
2017-02-22T11:14:17.548Z,997.52
2017-02-22T11:15:17.527Z,997.48
2017-02-22T11:16:17.513Z,997.46
2017-02-22T11:17:17.490Z,997.45
2017-02-22T11:18:17.465Z,997.49
2017-02-22T11:19:17.448Z,997.41
2017-02-22T11:20:17.425Z,997.4
2017-02-22T11:21:17.404Z,997.39
2017-02-22T11:22:17.386Z,997.45
2017-02-22T11:23:17.365Z,997.49
2017-02-22T11:24:17.350Z,997.47
2017-02-22T11:25:17.332Z,997.43
2017-02-22T11:26:17.312Z,997.39
2017-02-22T11:27:17.286Z,997.38
2017-02-22T11:28:17.273Z,997.37
2017-02-22T11:29:17.249Z,997.32
2017-02-22T11:30:17.229Z,997.38
2017-02-22T11:31:17.210Z,997.28
2017-02-22T11:32:17.189Z,997.27
2017-02-22T11:33:17.168Z,997.25
2017-02-22T11:34:17.147Z,997.34
2017-02-22T11:35:17.128Z,997.34
2017-02-22T11:36:17.107Z,997.32
2017-02-22T11:37:17.096Z,997.34
2017-02-22T11:38:17.068Z,997.31
2017-02-22T11:39:17.055Z,997.31
2017-02-22T11:40:17.032Z,997.29
2017-02-22T11:41:17.014Z,997.26
2017-02-22T11:42:16.993Z,997.31
2017-02-22T11:43:16.981Z,997.3
2017-02-22T11:44:16.953Z,997.26
2017-02-22T11:45:16.934Z,997.25
2017-02-22T11:46:16.910Z,997.24
2017-02-22T11:47:16.899Z,997.36
2017-02-22T11:48:16.877Z,997.39
2017-02-22T11:49:16.859Z,997.37
2017-02-22T11:50:16.835Z,997.4
2017-02-22T11:51:16.813Z,997.35
2017-02-22T11:52:16.801Z,997.35
2017-02-22T11:53:16.775Z,997.35
2017-02-22T11:54:16.758Z,997.36
2017-02-22T11:55:16.739Z,997.35
2017-02-22T11:56:16.716Z,997.31
2017-02-22T11:57:16.696Z,997.38
2017-02-22T11:58:16.675Z,997.36
2017-02-22T11:59:16.666Z,997.33
2017-02-22T12:00:16.645Z,997.28
2017-02-22T12:01:16.621Z,997.29
2017-02-22T12:02:16.600Z,997.23
2017-02-22T12:03:16.583Z,997.2
2017-02-22T12:04:16.563Z,997.26
2017-02-22T12:05:16.541Z,997.21
2017-02-22T12:06:16.522Z,997.23
2017-02-22T12:07:16.499Z,997.18
2017-02-22T12:08:16.481Z,997.14
2017-02-22T12:09:16.460Z,997.2
2017-02-22T12:10:16.441Z,997.17
2017-02-22T12:11:16.420Z,997.13
2017-02-22T12:12:16.398Z,997.07
2017-02-22T12:13:16.382Z,997.04
2017-02-22T12:14:16.364Z,997.01
2017-02-22T12:15:16.339Z,997.11
2017-02-22T12:16:16.322Z,996.94
2017-02-22T12:17:16.306Z,996.95
2017-02-22T12:18:16.285Z,996.95
2017-02-22T12:19:16.262Z,996.86
2017-02-22T12:20:16.240Z,996.86
2017-02-22T12:21:16.224Z,996.87
2017-02-22T12:22:16.203Z,996.88
2017-02-22T12:23:16.184Z,996.91
2017-02-22T12:24:16.161Z,996.89
2017-02-22T12:25:16.144Z,996.85
2017-02-22T12:26:16.122Z,996.94
2017-02-22T12:27:16.102Z,996.83